Lakeland, Georgia
Current Conditions -  °F | °C
As of 3:58 AM on Monday 20 Oct 2014 (Local Time) from KVAD Reporting Station
Clear Clear  
Wind Chill: 52°   Ceiling: Unl
Heat Index: 52°   Visibility: 10mi
Dew Point: 50°   Wind: 1mph
Humidity: 93%   Direction: 30°NNE
Pressure: 30.07"   Gusts: NA
Location:  31.04°N, 83.08°W
Report Text: KVAD 200758Z AUTO 03001KT 10SM CLR 11/10 A3007 RMK AO2 SLP184 T01090098 $
Loading
Personal Weather Stations






























Interactive Weather Map
Tropical Storm Tracking
New forecast layout! Learn more

10-Day Weather Forecast

Advertisements
Track Severe Weather on mobile